Time;durP1;ratioP1;P1;durP2;ratioP2;P2;SDS_P1;SDS_P2;PMS_P1;PMS_P2;Temp;Humidity;BMP_temperature;BMP_pressure;BME280_temperature;BME280_humidity;BME280_pressure;Samples;Min_cycle;Max_cycle;Signal;HPM_P1;HPM_P2
2022/09/07 00:00:35;;;;;;;2.67;2.30;;;17.50;83.00;;;;;;5057093;28;20673;-76
2022/09/07 00:03:01;;;;;;;1.73;1.73;;;17.40;82.30;;;;;;5051349;28;20183;-77
2022/09/07 00:05:27;;;;;;;1.58;1.58;;;17.40;82.40;;;;;;5057023;28;20266;-76
2022/09/07 00:07:54;;;;;;;4.32;2.00;;;17.40;82.40;;;;;;5055745;28;20292;-77
2022/09/07 00:10:20;;;;;;;1.48;1.48;;;17.30;82.60;;;;;;5056363;28;20666;-76
2022/09/07 00:12:46;;;;;;;1.75;1.75;;;17.30;82.70;;;;;;5052776;28;20183;-76
2022/09/07 00:15:12;;;;;;;1.67;1.67;;;17.20;82.40;;;;;;5054463;28;20183;-77
2022/09/07 00:17:38;;;;;;;1.58;1.58;;;17.10;82.40;;;;;;5052473;28;20183;-77
2022/09/07 00:20:06;;;;;;;1.65;1.65;;;17.00;81.90;;;;;;5053419;28;20665;-77
2022/09/07 00:22:32;;;;;;;1.70;1.70;;;17.00;82.10;;;;;;5053921;28;20188;-77
2022/09/07 00:24:58;;;;;;;1.90;1.83;;;17.00;82.00;;;;;;5051291;28;20689;-76
2022/09/07 00:27:24;;;;;;;1.70;1.60;;;17.00;82.10;;;;;;5049981;28;20211;-77
2022/09/07 00:29:49;;;;;;;1.80;1.70;;;17.00;82.80;;;;;;5055446;28;20194;-77
2022/09/07 00:32:15;;;;;;;1.77;1.67;;;16.90;81.10;;;;;;5050259;28;20176;-77
2022/09/07 00:34:41;;;;;;;1.95;1.48;;;16.90;80.80;;;;;;5050809;28;20182;-77
2022/09/07 00:37:07;;;;;;;2.28;1.88;;;16.90;81.00;;;;;;5054720;28;20575;-77
2022/09/07 00:39:33;;;;;;;1.83;1.83;;;17.00;81.00;;;;;;5054946;28;20175;-77
2022/09/07 00:41:59;;;;;;;1.65;1.55;;;16.90;80.90;;;;;;5057813;28;20183;-77
2022/09/07 00:44:56;;;;;;;1.63;1.48;;;17.00;81.10;;;;;;5049691;28;21008;-77
2022/09/07 00:47:42;;;;;;;3.22;1.60;;;17.00;80.50;;;;;;5048235;28;20738;-77
2022/09/07 00:50:20;;;;;;;1.73;1.63;;;17.00;80.60;;;;;;5051728;28;20184;-77
2022/09/07 00:52:51;;;;;;;1.35;1.35;;;16.90;80.20;;;;;;5053000;28;20171;-77
2022/09/07 00:55:18;;;;;;;1.40;1.40;;;16.90;81.00;;;;;;5049259;28;20198;-77
2022/09/07 00:57:48;;;;;;;1.65;1.55;;;16.90;81.10;;;;;;5053508;28;20171;-77
2022/09/07 01:00:13;;;;;;;1.45;1.45;;;16.90;81.20;;;;;;5052835;28;20769;-77
2022/09/07 01:02:40;;;;;;;2.50;2.22;;;16.90;80.90;;;;;;5057081;28;20270;-77
2022/09/07 01:05:34;;;;;;;2.28;2.17;;;16.90;82.50;;;;;;5050801;28;20241;-77
2022/09/07 01:08:00;;;;;;;2.45;2.35;;;16.90;82.70;;;;;;5007204;28;20201;-77
2022/09/07 01:10:32;;;;;;;1.60;1.60;;;16.90;82.50;;;;;;5028385;28;20224;-77
2022/09/07 01:13:01;;;;;;;3.38;2.15;;;16.80;81.60;;;;;;5013538;28;20251;-77
2022/09/07 01:15:59;;;;;;;1.90;1.90;;;16.70;81.00;;;;;;5010885;28;20254;-77
2022/09/07 01:18:34;;;;;;;1.85;1.75;;;16.70;81.20;;;;;;5007019;28;20185;-77
2022/09/07 01:21:23;;;;;;;3.00;1.80;;;16.60;81.90;;;;;;5010434;28;20936;-77
2022/09/07 01:24:00;;;;;;;1.60;1.60;;;16.60;81.80;;;;;;4991200;28;20753;-77
2022/09/07 01:27:00;;;;;;;2.00;1.90;;;16.60;81.00;;;;;;4989946;28;20311;-77
2022/09/07 01:29:39;;;;;;;1.85;1.75;;;16.60;80.90;;;;;;4990712;28;20194;-77
2022/09/07 01:32:27;;;;;;;1.90;1.85;;;16.50;81.10;;;;;;4993196;28;20644;-77
2022/09/07 01:34:53;;;;;;;1.50;1.50;;;16.50;81.20;;;;;;4988423;28;20654;-77
2022/09/07 01:37:49;;;;;;;2.33;2.10;;;16.50;82.60;;;;;;4993996;28;20232;-77
2022/09/07 01:40:42;;;;;;;2.03;2.03;;;16.50;82.20;;;;;;4992040;28;20197;-77
2022/09/07 01:43:24;;;;;;;2.63;2.53;;;16.50;84.30;;;;;;4995936;28;21116;-77
2022/09/07 01:45:53;;;;;;;3.70;1.92;;;16.50;82.50;;;;;;5000399;28;20732;-77
2022/09/07 01:48:22;;;;;;;2.35;2.33;;;16.50;82.80;;;;;;5002259;28;20301;-77
2022/09/07 01:50:56;;;;;;;2.00;2.00;;;16.50;82.90;;;;;;5003133;28;20181;-77
2022/09/07 01:53:58;;;;;;;3.17;2.30;;;16.50;82.90;;;;;;5002401;28;20627;-78
2022/09/07 01:56:34;;;;;;;7.00;2.15;;;16.40;82.80;;;;;;4989896;28;20624;-77
2022/09/07 01:59:08;;;;;;;2.03;1.92;;;16.40;82.70;;;;;;4988361;28;20180;-77
2022/09/07 02:01:39;;;;;;;2.03;1.92;;;16.40;82.70;;;;;;5039477;28;20206;-76
2022/09/07 02:04:20;;;;;;;1.80;1.80;;;16.40;83.00;;;;;;5054256;28;20187;-77
2022/09/07 02:06:57;;;;;;;1.35;1.35;;;16.40;82.40;;;;;;5050310;28;20688;-77
2022/09/07 02:09:30;;;;;;;1.63;1.63;;;16.40;82.60;;;;;;5052117;28;20178;-77
2022/09/07 02:11:59;;;;;;;1.60;1.60;;;16.30;81.90;;;;;;5049985;28;20191;-77
2022/09/07 02:14:39;;;;;;;1.60;1.60;;;16.30;82.40;;;;;;5057065;28;20640;-77
2022/09/07 02:17:11;;;;;;;2.03;1.92;;;16.30;81.80;;;;;;5050532;28;20187;-77
2022/09/07 02:19:48;;;;;;;2.13;2.05;;;16.30;83.30;;;;;;5052993;28;20180;-77
2022/09/07 02:22:19;;;;;;;2.10;2.00;;;16.30;83.10;;;;;;5055925;28;20179;-77
2022/09/07 02:24:49;;;;;;;1.55;1.55;;;16.30;83.60;;;;;;5053109;28;20262;-76
2022/09/07 02:27:32;;;;;;;2.65;1.58;;;16.20;83.20;;;;;;5055330;28;20603;-77
2022/09/07 02:29:58;;;;;;;2.25;1.10;;;16.20;82.40;;;;;;5052822;28;20190;-77
2022/09/07 02:32:24;;;;;;;1.10;1.10;;;16.10;82.80;;;;;;5053931;28;20179;-77
2022/09/07 02:34:49;;;;;;;1.30;1.20;;;16.00;82.60;;;;;;5055554;28;20179;-76
2022/09/07 02:37:16;;;;;;;1.50;1.38;;;16.00;82.70;;;;;;5055765;28;20191;-77
2022/09/07 02:39:42;;;;;;;1.10;1.10;;;15.90;82.30;;;;;;5055229;28;20194;-76
2022/09/07 02:42:08;;;;;;;0.85;0.85;;;15.80;82.30;;;;;;5061068;28;20401;-76
2022/09/07 02:44:37;;;;;;;2.72;1.27;;;15.80;82.20;;;;;;5056444;28;20600;-78
2022/09/07 02:47:16;;;;;;;1.30;1.20;;;15.80;81.80;;;;;;5058408;28;20326;-77
2022/09/07 02:50:16;;;;;;;1.70;1.60;;;15.80;81.50;;;;;;5053096;28;20187;-77
2022/09/07 02:52:52;;;;;;;1.77;1.10;;;15.80;83.10;;;;;;5052112;28;20684;-77
2022/09/07 02:55:38;;;;;;;2.67;1.42;;;15.80;82.20;;;;;;5057046;28;20565;-77
2022/09/07 02:58:29;;;;;;;1.23;1.23;;;15.70;82.80;;;;;;5053653;28;20198;-77
2022/09/07 03:01:00;;;;;;;0.88;0.88;;;15.70;82.20;;;;;;5057117;28;20180;-77
2022/09/07 03:03:43;;;;;;;1.23;1.23;;;15.70;82.80;;;;;;5055145;28;20190;-77
2022/09/07 03:06:35;;;;;;;1.63;1.58;;;15.70;82.90;;;;;;5056262;28;20321;-77
2022/09/07 03:09:08;;;;;;;1.02;1.02;;;15.60;82.50;;;;;;5014742;28;20185;-78
2022/09/07 03:11:37;;;;;;;2.15;1.35;;;15.60;82.50;;;;;;5018574;28;20196;-77
2022/09/07 03:14:16;;;;;;;1.70;1.60;;;15.60;82.20;;;;;;5014381;28;20251;-77
2022/09/07 03:16:42;;;;;;;1.50;1.45;;;15.50;81.60;;;;;;5013737;28;20622;-77
2022/09/07 03:19:08;;;;;;;2.35;1.02;;;15.50;82.30;;;;;;5013854;28;20267;-77
2022/09/07 03:21:34;;;;;;;1.40;1.30;;;15.50;82.40;;;;;;5011082;28;20336;-77
2022/09/07 03:24:00;;;;;;;1.20;1.17;;;15.50;82.60;;;;;;5011236;28;20254;-77
2022/09/07 03:26:26;;;;;;;1.08;1.08;;;15.50;82.40;;;;;;5015660;28;20774;-77
2022/09/07 03:28:52;;;;;;;1.67;1.58;;;15.50;82.40;;;;;;5014743;28;20773;-77
2022/09/07 03:31:19;;;;;;;1.25;1.25;;;15.50;82.40;;;;;;5012596;28;20199;-77
2022/09/07 03:33:44;;;;;;;1.23;1.23;;;15.50;82.30;;;;;;5014154;28;20200;-77
2022/09/07 03:36:10;;;;;;;1.42;1.42;;;15.50;82.40;;;;;;5012059;28;20961;-78
2022/09/07 03:38:36;;;;;;;1.50;1.50;;;15.50;82.40;;;;;;5013476;28;20213;-77
2022/09/07 03:41:04;;;;;;;1.38;1.38;;;15.50;82.40;;;;;;5015382;28;20185;-77
2022/09/07 03:43:31;;;;;;;1.45;1.45;;;15.50;82.40;;;;;;5010703;28;20196;-77
2022/09/07 03:46:04;;;;;;;1.25;1.25;;;15.50;82.30;;;;;;5033016;28;20222;-77
2022/09/07 03:48:33;;;;;;;1.60;1.60;;;15.50;82.10;;;;;;5053424;28;20187;-77
2022/09/07 03:51:07;;;;;;;1.42;1.42;;;15.50;82.50;;;;;;5054254;28;20186;-76
2022/09/07 03:53:43;;;;;;;1.75;1.40;;;15.50;82.20;;;;;;5051222;28;20188;-78
2022/09/07 03:56:10;;;;;;;2.20;1.48;;;15.50;82.20;;;;;;5056884;28;20199;-75
2022/09/07 03:58:36;;;;;;;1.75;1.67;;;15.50;82.70;;;;;;5055458;28;20194;-77
2022/09/07 04:01:07;;;;;;;1.95;1.85;;;15.50;83.00;;;;;;5058743;28;20580;-76
2022/09/07 04:03:33;;;;;;;1.77;1.55;;;15.50;83.20;;;;;;5056268;28;20180;-77
2022/09/07 04:06:00;;;;;;;3.70;1.83;;;15.50;83.80;;;;;;5055939;28;20223;-77
2022/09/07 04:08:32;;;;;;;1.60;1.60;;;15.40;83.20;;;;;;5053675;28;20362;-78
2022/09/07 04:11:00;;;;;;;2.67;2.17;;;15.40;82.90;;;;;;5057459;28;20183;-78
2022/09/07 04:13:28;;;;;;;1.80;1.80;;;15.40;83.60;;;;;;5053966;28;20183;-77
2022/09/07 04:15:55;;;;;;;2.70;2.38;;;15.40;83.50;;;;;;5053166;28;20195;-78
2022/09/07 04:18:21;;;;;;;2.33;2.22;;;15.40;83.70;;;;;;5053975;28;20207;-76
2022/09/07 04:20:49;;;;;;;2.15;2.10;;;15.40;83.70;;;;;;5049157;28;20656;-77
2022/09/07 04:23:16;;;;;;;2.03;1.92;;;15.40;83.90;;;;;;5051958;28;20568;-77
2022/09/07 04:25:51;;;;;;;2.30;2.20;;;15.40;84.30;;;;;;5050679;28;20735;-77
2022/09/07 04:28:19;;;;;;;1.90;1.85;;;15.30;83.40;;;;;;5054850;28;20247;-77
2022/09/07 04:30:45;;;;;;;2.22;2.13;;;15.40;84.00;;;;;;5051411;28;20179;-77
2022/09/07 04:33:11;;;;;;;2.20;2.05;;;15.40;84.30;;;;;;5049907;28;20237;-77
2022/09/07 04:35:38;;;;;;;1.83;1.60;;;15.40;84.10;;;;;;5056876;28;20187;-77
2022/09/07 04:38:03;;;;;;;1.88;1.80;;;15.40;84.10;;;;;;5055242;28;20195;-77
2022/09/07 04:40:29;;;;;;;1.58;1.58;;;15.40;84.10;;;;;;5057151;28;20571;-78
2022/09/07 04:42:55;;;;;;;1.63;1.52;;;15.40;84.20;;;;;;5052859;28;20175;-78
2022/09/07 04:45:21;;;;;;;1.90;1.80;;;15.40;84.10;;;;;;5053353;28;20252;-77
2022/09/07 04:47:47;;;;;;;1.42;1.42;;;15.50;84.10;;;;;;5051384;28;20270;-77
2022/09/07 04:50:14;;;;;;;1.67;1.67;;;15.50;83.90;;;;;;5053950;28;20190;-77
2022/09/07 04:52:40;;;;;;;3.67;1.30;;;15.50;83.70;;;;;;5055277;28;20190;-77
2022/09/07 04:55:05;;;;;;;8.27;1.92;;;15.50;83.80;;;;;;5054651;28;20560;-77
2022/09/07 04:57:31;;;;;;;1.55;1.52;;;15.50;83.70;;;;;;5052871;28;20243;-76
2022/09/07 04:59:57;;;;;;;1.83;1.73;;;15.60;83.60;;;;;;5055762;28;20246;-76
2022/09/07 05:02:22;;;;;;;1.52;1.52;;;15.60;83.70;;;;;;5058011;28;20190;-77
2022/09/07 05:04:48;;;;;;;1.42;1.42;;;15.60;83.60;;;;;;5053963;28;20179;-77
2022/09/07 05:07:14;;;;;;;1.70;1.70;;;15.60;83.20;;;;;;5055273;28;20637;-77
2022/09/07 05:09:39;;;;;;;1.55;1.55;;;15.70;83.20;;;;;;5056041;28;20191;-77
2022/09/07 05:12:05;;;;;;;1.52;1.42;;;15.70;83.00;;;;;;5054177;28;20190;-77
2022/09/07 05:14:31;;;;;;;1.25;1.25;;;15.70;82.70;;;;;;5053863;28;20183;-77
2022/09/07 05:16:56;;;;;;;2.40;2.17;;;15.70;83.00;;;;;;5052419;28;20328;-77
2022/09/07 05:19:22;;;;;;;4.70;3.00;;;15.80;83.30;;;;;;5050973;28;20183;-77
2022/09/07 05:21:48;;;;;;;3.10;2.90;;;15.80;83.80;;;;;;5055125;28;20564;-77
2022/09/07 05:24:14;;;;;;;2.83;2.65;;;15.80;83.70;;;;;;5055391;28;20183;-77
2022/09/07 05:26:39;;;;;;;2.60;2.50;;;15.80;83.70;;;;;;5055094;28;20748;-76
2022/09/07 05:29:06;;;;;;;3.00;2.80;;;15.90;83.80;;;;;;5051407;28;20554;-76
2022/09/07 05:31:32;;;;;;;3.03;2.88;;;15.90;83.70;;;;;;5051766;28;20180;-77
2022/09/07 05:33:58;;;;;;;1.92;1.85;;;15.90;84.30;;;;;;5053613;28;20224;-76
2022/09/07 05:36:27;;;;;;;1.50;1.45;;;15.90;83.40;;;;;;5052419;28;20180;-76
2022/09/07 05:38:54;;;;;;;1.20;1.20;;;15.90;82.80;;;;;;5048555;28;20184;-78
2022/09/07 05:41:23;;;;;;;1.73;1.63;;;15.90;82.90;;;;;;5050404;28;20180;-79
2022/09/07 05:43:49;;;;;;;1.60;1.60;;;15.90;82.90;;;;;;5052294;28;20230;-77
2022/09/07 05:46:16;;;;;;;1.40;1.40;;;15.90;82.60;;;;;;5053662;28;20238;-78
2022/09/07 05:48:43;;;;;;;1.60;1.55;;;16.00;82.40;;;;;;5053609;28;20179;-77
2022/09/07 05:51:11;;;;;;;1.40;1.40;;;16.00;82.50;;;;;;5051590;28;20255;-78
2022/09/07 05:53:39;;;;;;;1.33;1.30;;;16.10;82.60;;;;;;5053153;28;20187;-78
2022/09/07 05:56:05;;;;;;;2.53;1.55;;;16.10;82.20;;;;;;5055328;28;20187;-78
2022/09/07 05:58:32;;;;;;;1.00;1.00;;;16.20;82.10;;;;;;5055663;28;20634;-78
2022/09/07 06:01:08;;;;;;;1.20;1.20;;;16.20;82.00;;;;;;5063957;28;20197;-78
2022/09/07 06:03:35;;;;;;;1.10;1.10;;;16.20;81.90;;;;;;5055099;28;20190;-77
2022/09/07 06:06:07;;;;;;;1.63;1.52;;;16.30;81.70;;;;;;5058179;28;20306;-77
2022/09/07 06:08:35;;;;;;;1.20;1.20;;;16.30;81.50;;;;;;5058403;28;20210;-78
2022/09/07 06:11:08;;;;;;;2.05;1.17;;;16.40;81.10;;;;;;5056804;28;20183;-77
2022/09/07 06:13:34;;;;;;;1.17;1.17;;;16.40;81.20;;;;;;5055333;28;20183;-77
2022/09/07 06:16:04;;;;;;;1.25;1.25;;;16.50;80.90;;;;;;5060710;28;20194;-77
2022/09/07 06:18:31;;;;;;;2.15;1.25;;;16.60;80.50;;;;;;5056966;28;20323;-77
2022/09/07 06:21:04;;;;;;;1.13;1.08;;;16.60;80.70;;;;;;5061144;28;20179;-77
2022/09/07 06:23:31;;;;;;;1.60;1.25;;;16.70;80.10;;;;;;5063868;28;20183;-77
2022/09/07 06:25:57;;;;;;;0.90;0.90;;;16.70;80.10;;;;;;5064238;28;20214;-77
2022/09/07 06:28:42;;;;;;;1.02;1.02;;;16.80;80.10;;;;;;5060840;28;20256;-77
2022/09/07 06:31:13;;;;;;;2.42;1.52;;;16.80;79.70;;;;;;5068997;28;20195;-78
2022/09/07 06:33:43;;;;;;;1.65;1.05;;;16.90;80.00;;;;;;5060831;28;20192;-77
2022/09/07 06:36:13;;;;;;;1.08;1.08;;;17.00;79.60;;;;;;5055147;28;20194;-77
2022/09/07 06:38:40;;;;;;;0.98;0.98;;;17.00;79.30;;;;;;5059601;28;20266;-77
2022/09/07 06:41:20;;;;;;;1.08;1.08;;;17.10;78.90;;;;;;5060767;28;20183;-77
2022/09/07 06:43:46;;;;;;;0.77;0.77;;;17.10;78.40;;;;;;5060369;28;20266;-77
2022/09/07 06:46:12;;;;;;;0.93;0.93;;;17.20;78.80;;;;;;5060129;28;20211;-77
2022/09/07 06:48:38;;;;;;;0.88;0.88;;;17.30;78.00;;;;;;5055934;28;20191;-77
2022/09/07 06:51:28;;;;;;;0.82;0.82;;;17.30;78.10;;;;;;5062386;28;20187;-77
2022/09/07 06:53:55;;;;;;;0.90;0.90;;;17.30;78.10;;;;;;5056446;28;20699;-77
2022/09/07 06:56:22;;;;;;;1.75;1.10;;;17.40;78.40;;;;;;5061271;28;20179;-77
2022/09/07 06:58:55;;;;;;;0.90;0.90;;;17.50;78.20;;;;;;5059291;28;20191;-76
2022/09/07 07:01:25;;;;;;;4.13;1.10;;;17.50;77.90;;;;;;5059425;28;20184;-77
2022/09/07 07:03:52;;;;;;;0.90;0.90;;;17.50;77.70;;;;;;5054329;28;20214;-77
2022/09/07 07:06:19;;;;;;;1.35;1.35;;;17.60;77.00;;;;;;5057486;28;20206;-76
2022/09/07 07:08:45;;;;;;;1.15;1.15;;;17.70;77.40;;;;;;5058636;28;20660;-77
2022/09/07 07:11:12;;;;;;;1.67;1.10;;;17.70;77.80;;;;;;5055893;28;20663;-77
2022/09/07 07:13:39;;;;;;;0.90;0.90;;;17.80;77.60;;;;;;5057252;28;20184;-77
2022/09/07 07:16:13;;;;;;;0.82;0.82;;;17.80;77.50;;;;;;5057108;28;20637;-77
2022/09/07 07:18:40;;;;;;;1.45;1.02;;;17.90;77.20;;;;;;5060137;28;20191;-76
2022/09/07 07:21:08;;;;;;;0.80;0.80;;;18.00;77.40;;;;;;5060140;28;20184;-77
2022/09/07 07:23:34;;;;;;;0.85;0.85;;;18.00;76.30;;;;;;5051728;28;20187;-77
2022/09/07 07:26:11;;;;;;;0.93;0.93;;;18.10;76.30;;;;;;5052415;28;21639;-77
2022/09/07 07:28:37;;;;;;;0.88;0.88;;;18.20;75.50;;;;;;5056867;28;20595;-77
2022/09/07 07:31:04;;;;;;;1.20;1.10;;;18.20;76.30;;;;;;5057968;28;20180;-77
2022/09/07 07:33:34;;;;;;;1.02;1.02;;;18.30;76.50;;;;;;5057105;28;20188;-77
2022/09/07 07:36:21;;;;;;;1.02;0.98;;;18.30;76.40;;;;;;5055358;28;20237;-77
2022/09/07 07:38:49;;;;;;;1.00;1.00;;;18.40;76.50;;;;;;5058346;28;20277;-77
2022/09/07 07:41:17;;;;;;;1.17;1.08;;;18.50;76.30;;;;;;5054681;28;20195;-77
2022/09/07 07:43:43;;;;;;;0.80;0.80;;;18.60;75.30;;;;;;5054701;28;20623;-77
2022/09/07 07:46:12;;;;;;;1.40;1.20;;;18.60;76.00;;;;;;5059394;28;20227;-77
2022/09/07 07:48:38;;;;;;;1.10;1.00;;;18.70;75.80;;;;;;5051544;28;20192;-77
2022/09/07 07:51:06;;;;;;;1.20;1.20;;;18.80;75.80;;;;;;5055704;28;20179;-77
2022/09/07 07:53:33;;;;;;;1.48;1.48;;;18.90;74.90;;;;;;5051300;28;20180;-77
2022/09/07 07:56:00;;;;;;;1.40;1.27;;;19.00;74.80;;;;;;5056616;28;20191;-77
2022/09/07 07:58:27;;;;;;;1.10;1.10;;;19.00;74.80;;;;;;5051118;28;20187;-77
2022/09/07 08:00:53;;;;;;;1.00;1.00;;;19.10;75.00;;;;;;5057622;28;20262;-78
2022/09/07 08:03:20;;;;;;;3.10;1.77;;;19.20;75.20;;;;;;5058395;28;20599;-78
2022/09/07 08:05:46;;;;;;;2.60;1.52;;;19.30;75.00;;;;;;5053317;28;20665;-78
2022/09/07 08:08:11;;;;;;;1.25;1.15;;;19.40;74.50;;;;;;5055426;28;20268;-76
2022/09/07 08:10:37;;;;;;;1.55;1.45;;;19.50;74.20;;;;;;5054448;28;20184;-77
2022/09/07 08:13:03;;;;;;;1.17;1.17;;;19.60;74.50;;;;;;5053197;28;20566;-77
2022/09/07 08:15:30;;;;;;;0.95;0.95;;;19.70;74.70;;;;;;5052622;28;20194;-77
2022/09/07 08:17:56;;;;;;;1.30;1.20;;;19.80;74.80;;;;;;5054644;28;20217;-78
2022/09/07 08:20:22;;;;;;;1.30;1.30;;;20.00;75.30;;;;;;5054686;28;20179;-78
2022/09/07 08:22:50;;;;;;;3.03;1.25;;;20.10;75.10;;;;;;5059145;28;20194;-78
2022/09/07 08:25:16;;;;;;;1.20;1.17;;;20.30;74.90;;;;;;5058966;28;20179;-77
2022/09/07 08:27:42;;;;;;;1.27;1.15;;;20.40;74.70;;;;;;5057523;28;20210;-77
2022/09/07 08:30:09;;;;;;;1.48;1.48;;;20.50;73.70;;;;;;5052576;28;20241;-77
2022/09/07 08:32:35;;;;;;;1.60;1.60;;;20.70;73.40;;;;;;5052127;28;20565;-76
2022/09/07 08:35:02;;;;;;;1.38;1.30;;;20.80;73.00;;;;;;5054299;28;20262;-77
2022/09/07 08:37:28;;;;;;;1.50;1.50;;;21.00;73.20;;;;;;5055003;28;20699;-76
2022/09/07 08:39:53;;;;;;;5.18;1.60;;;21.30;72.90;;;;;;5049798;28;20274;-77
2022/09/07 08:42:51;;;;;;;1.52;1.52;;;21.60;72.00;;;;;;5054501;28;20287;-77
2022/09/07 08:45:27;;;;;;;1.42;1.42;;;21.90;71.20;;;;;;5011612;28;20208;-76
2022/09/07 08:47:53;;;;;;;4.55;1.42;;;22.30;71.10;;;;;;5013402;28;20371;-76
2022/09/07 08:50:23;;;;;;;2.80;1.80;;;22.80;69.70;;;;;;5011767;28;20275;-78
2022/09/07 08:53:03;;;;;;;1.95;1.77;;;23.40;69.30;;;;;;5009576;28;20184;-76
2022/09/07 08:55:55;;;;;;;1.33;1.27;;;24.20;66.80;;;;;;5010281;28;20288;-78
2022/09/07 08:58:30;;;;;;;2.80;1.65;;;24.90;64.80;;;;;;5024377;28;20227;-77
2022/09/07 09:00:56;;;;;;;1.20;1.20;;;25.70;64.60;;;;;;5012907;28;20662;-76
2022/09/07 09:03:26;;;;;;;1.30;1.20;;;26.50;63.20;;;;;;5009310;28;20235;-75
2022/09/07 09:06:00;;;;;;;2.10;1.30;;;27.40;63.40;;;;;;5008353;28;20208;-77
2022/09/07 09:08:34;;;;;;;2.10;1.30;;;28.30;60.30;;;;;;5008656;28;20224;-77
2022/09/07 09:11:32;;;;;;;1.08;1.08;;;29.20;60.30;;;;;;5013043;28;20207;-77
2022/09/07 09:14:11;;;;;;;2.20;1.27;;;30.10;59.30;;;;;;4983018;28;20193;-77
2022/09/07 09:16:45;;;;;;;5.20;1.45;;;30.90;54.10;;;;;;4967005;28;20216;-77
2022/09/07 09:19:48;;;;;;;1.10;1.10;;;31.40;56.60;;;;;;4982503;28;20197;-77
2022/09/07 09:22:17;;;;;;;1.50;1.40;;;32.10;55.70;;;;;;4971633;28;20206;-77
2022/09/07 09:24:59;;;;;;;1.52;1.52;;;32.80;52.80;;;;;;4963338;28;20191;-77
2022/09/07 09:27:24;;;;;;;1.67;1.40;;;33.40;51.70;;;;;;4964318;28;20228;-77
2022/09/07 09:29:50;;;;;;;1.48;1.48;;;33.60;51.40;;;;;;4964174;28;20644;-77
2022/09/07 09:32:35;;;;;;;1.50;1.50;;;33.50;52.60;;;;;;4964041;28;20214;-77
2022/09/07 09:35:10;;;;;;;2.20;2.00;;;33.40;50.80;;;;;;4963160;28;20687;-77
2022/09/07 09:37:38;;;;;;;1.73;1.73;;;33.60;51.80;;;;;;4963480;28;20197;-77
2022/09/07 09:40:18;;;;;;;1.67;1.65;;;34.00;51.10;;;;;;4963015;28;20186;-78
2022/09/07 09:42:45;;;;;;;1.30;1.30;;;34.40;52.10;;;;;;4961848;28;20193;-77
2022/09/07 09:45:24;;;;;;;1.25;1.25;;;34.80;52.60;;;;;;4963334;28;20205;-75
2022/09/07 09:47:53;;;;;;;1.90;1.85;;;35.20;49.30;;;;;;4963518;28;20703;-77
2022/09/07 09:50:39;;;;;;;3.03;1.35;;;35.40;51.30;;;;;;5035253;28;20194;-77
2022/09/07 09:53:06;;;;;;;1.73;1.58;;;35.70;50.40;;;;;;5060426;28;20269;-78
2022/09/07 09:55:35;;;;;;;1.80;1.70;;;36.20;50.10;;;;;;5054174;28;20187;-78
2022/09/07 09:58:23;;;;;;;1.42;1.42;;;36.50;49.40;;;;;;5050086;28;20518;-78
2022/09/07 10:01:00;;;;;;;3.90;1.45;;;36.90;47.00;;;;;;5051636;28;20186;-77
2022/09/07 10:03:26;;;;;;;1.40;1.40;;;37.30;48.30;;;;;;5053091;28;21069;-77
2022/09/07 10:05:53;;;;;;;2.10;2.00;;;37.40;47.70;;;;;;5057349;28;20310;-77
2022/09/07 10:08:27;;;;;;;1.25;1.25;;;37.40;47.90;;;;;;5054833;28;20190;-78
2022/09/07 10:11:01;;;;;;;1.50;1.50;;;37.60;49.60;;;;;;5051598;28;20279;-77
2022/09/07 10:13:28;;;;;;;1.33;1.33;;;37.80;48.00;;;;;;5053203;28;20236;-77
2022/09/07 10:15:55;;;;;;;1.45;1.35;;;38.10;45.90;;;;;;5056230;28;20210;-78
2022/09/07 10:18:32;;;;;;;1.48;1.48;;;38.30;44.10;;;;;;5052075;28;20179;-77
2022/09/07 10:21:31;;;;;;;1.70;1.60;;;38.60;49.00;;;;;;5050963;28;21328;-78
2022/09/07 10:24:12;;;;;;;1.63;1.52;;;39.10;45.40;;;;;;5021711;28;20196;-77
2022/09/07 10:26:39;;;;;;;2.30;1.45;;;39.60;46.50;;;;;;5020597;28;20234;-78
2022/09/07 10:29:10;;;;;;;1.33;1.33;;;39.80;48.10;;;;;;5021584;28;20636;-77
2022/09/07 10:31:59;;;;;;;1.90;1.80;;;40.20;47.00;;;;;;5021330;28;20594;-78
2022/09/07 10:34:32;;;;;;;1.55;1.40;;;40.60;48.20;;;;;;4972407;28;20202;-78
2022/09/07 10:37:03;;;;;;;2.30;1.60;;;41.00;47.40;;;;;;4971534;28;20194;-78
2022/09/07 10:39:41;;;;;;;1.60;1.60;;;41.30;46.30;;;;;;4970964;28;20210;-77
2022/09/07 10:42:12;;;;;;;2.58;1.15;;;41.50;47.40;;;;;;4971371;28;20185;-77
2022/09/07 10:44:42;;;;;;;1.60;1.55;;;41.80;44.20;;;;;;4965974;28;20281;-77
2022/09/07 10:47:33;;;;;;;1.40;1.40;;;41.70;43.90;;;;;;4976966;28;20739;-77
2022/09/07 10:50:10;;;;;;;1.27;1.27;;;41.60;41.80;;;;;;4918542;29;20826;-78
2022/09/07 10:52:53;;;;;;;1.50;1.50;;;41.50;42.90;;;;;;4915278;29;20244;-78
2022/09/07 10:55:41;;;;;;;1.67;1.63;;;41.40;42.50;;;;;;4914283;29;20203;-78
2022/09/07 10:58:51;;;;;;;1.80;1.70;;;41.00;41.10;;;;;;4916232;29;20217;-76
2022/09/07 11:01:35;;;;;;;1.75;1.63;;;40.60;42.30;;;;;;4922500;29;20195;-77
2022/09/07 11:04:51;;;;;;;1.50;1.50;;;40.40;44.10;;;;;;4924018;29;20191;-77
2022/09/07 11:07:38;;;;;;;3.33;1.58;;;40.20;42.40;;;;;;4915647;29;20728;-77
2022/09/07 11:10:32;;;;;;;1.42;1.42;;;40.30;42.60;;;;;;4917834;29;20187;-77
2022/09/07 11:13:03;;;;;;;1.50;1.50;;;40.60;42.40;;;;;;4931957;29;20203;-77
2022/09/07 11:15:44;;;;;;;2.70;1.70;;;40.90;42.70;;;;;;4935556;28;20599;-77
2022/09/07 11:18:18;;;;;;;2.35;1.48;;;41.10;44.80;;;;;;4937322;29;20305;-77
2022/09/07 11:20:57;;;;;;;1.60;1.50;;;41.40;43.60;;;;;;4935308;29;20662;-77
2022/09/07 11:23:25;;;;;;;1.40;1.40;;;41.60;42.80;;;;;;4932416;29;20250;-77
2022/09/07 11:26:13;;;;;;;1.55;1.55;;;41.50;43.10;;;;;;4919343;28;20274;-77
2022/09/07 11:29:08;;;;;;;1.50;1.50;;;41.30;42.50;;;;;;4991825;28;20247;-77
2022/09/07 11:31:43;;;;;;;1.92;1.83;;;41.30;43.00;;;;;;4995783;28;20189;-77
2022/09/07 11:34:41;;;;;;;1.60;1.60;;;41.10;41.40;;;;;;4992399;28;20383;-77
2022/09/07 11:37:27;;;;;;;1.58;1.58;;;40.70;41.70;;;;;;4946515;29;20232;-77
2022/09/07 11:40:16;;;;;;;1.27;1.27;;;40.50;42.80;;;;;;4946391;29;20195;-77
2022/09/07 11:43:00;;;;;;;1.85;1.85;;;40.60;42.10;;;;;;4977016;28;20335;-77
2022/09/07 11:45:35;;;;;;;1.88;1.88;;;40.90;42.10;;;;;;5005072;28;20188;-77
2022/09/07 11:48:46;;;;;;;3.53;3.42;;;41.20;42.50;;;;;;5004522;28;20211;-77
2022/09/07 11:51:38;;;;;;;1.95;1.85;;;41.70;41.60;;;;;;4960296;28;20209;-77
2022/09/07 11:54:33;;;;;;;3.70;1.88;;;42.00;42.20;;;;;;4953848;28;20675;-77
2022/09/07 11:57:28;;;;;;;2.00;2.00;;;42.00;40.70;;;;;;4955161;28;20190;-77
2022/09/07 12:00:16;;;;;;;1.83;1.73;;;41.90;41.00;;;;;;4956042;28;20285;-77
2022/09/07 12:03:11;;;;;;;2.00;1.90;;;41.90;42.10;;;;;;4958151;28;20245;-77
2022/09/07 12:05:49;;;;;;;2.13;2.05;;;41.80;41.20;;;;;;4951255;28;20201;-77
2022/09/07 12:08:14;;;;;;;1.55;1.55;;;41.70;40.70;;;;;;4955571;28;20590;-77
2022/09/07 12:10:49;;;;;;;1.60;1.60;;;41.50;42.90;;;;;;4953529;28;20182;-78
2022/09/07 12:13:23;;;;;;;1.52;1.52;;;41.50;42.00;;;;;;4964956;28;20651;-78
2022/09/07 12:16:12;;;;;;;3.08;1.90;;;41.40;41.90;;;;;;5010395;28;20549;-78
2022/09/07 12:19:09;;;;;;;1.45;1.45;;;41.10;42.30;;;;;;4937499;29;20205;-79
2022/09/07 12:21:44;;;;;;;1.65;1.65;;;41.00;41.70;;;;;;4936905;29;20187;-77
2022/09/07 12:24:34;;;;;;;1.65;1.55;;;40.10;42.00;;;;;;4946659;28;20230;-77
2022/09/07 12:27:01;;;;;;;1.70;1.70;;;39.20;41.50;;;;;;4973547;28;20221;-78
2022/09/07 12:29:29;;;;;;;2.00;1.90;;;38.50;42.90;;;;;;4972165;28;20201;-78
2022/09/07 12:31:59;;;;;;;1.90;1.90;;;38.40;44.30;;;;;;4974627;28;20727;-76
2022/09/07 12:34:31;;;;;;;1.75;1.65;;;38.40;45.10;;;;;;4955693;28;20602;-76
2022/09/07 12:36:57;;;;;;;1.45;1.45;;;38.00;45.20;;;;;;4973817;28;20193;-77
2022/09/07 12:39:31;;;;;;;1.75;1.73;;;38.00;44.00;;;;;;4972532;28;20284;-77
2022/09/07 12:42:09;;;;;;;1.83;1.83;;;37.70;44.50;;;;;;4960724;28;20741;-77
2022/09/07 12:44:36;;;;;;;1.85;1.83;;;37.30;43.90;;;;;;4977812;28;20288;-76
2022/09/07 12:47:11;;;;;;;1.75;1.75;;;37.40;45.00;;;;;;4981203;28;20710;-76
2022/09/07 12:49:57;;;;;;;1.75;1.75;;;37.60;44.80;;;;;;4978255;28;20686;-76
2022/09/07 12:52:45;;;;;;;1.88;1.88;;;37.60;44.50;;;;;;4975802;28;20275;-78
2022/09/07 12:55:14;;;;;;;1.60;1.60;;;37.30;45.00;;;;;;4998623;28;20199;-78
2022/09/07 12:57:40;;;;;;;1.92;1.88;;;37.20;44.90;;;;;;5055165;28;20273;-78
2022/09/07 13:00:24;;;;;;;1.55;1.48;;;37.60;44.30;;;;;;5052480;28;20257;-77
2022/09/07 13:03:26;;;;;;;1.92;1.92;;;37.80;44.50;;;;;;5058134;28;20206;-77
2022/09/07 13:06:12;;;;;;;1.63;1.52;;;38.10;43.90;;;;;;5051879;28;20186;-77
2022/09/07 13:09:09;;;;;;;1.67;1.67;;;38.50;43.80;;;;;;5050778;28;20437;-77
2022/09/07 13:11:37;;;;;;;1.70;1.70;;;38.70;43.90;;;;;;5053040;28;20183;-77
2022/09/07 13:14:20;;;;;;;1.30;1.30;;;38.90;44.60;;;;;;5050035;28;20182;-77
2022/09/07 13:16:46;;;;;;;1.60;1.60;;;38.90;43.80;;;;;;5055972;28;20175;-77
2022/09/07 13:19:15;;;;;;;1.80;1.70;;;39.00;43.90;;;;;;5050591;28;20565;-77